This is the latest recevied weather packets stored in our database for station/object G8SIB-9. If no packets are shown the sender has not sent any weather packets the latest 10 day(s).
| Time | Temp. | Humidity | Pressure | Rain* | Wind** | Luminosity | Snow |
|---|---|---|---|---|---|---|---|
| 1778071068 | 13.33° C | 55% | 1009.5 hPa | 0 mm | - | - | - |
| 1778070466 | 13.33° C | 54% | 1009.6 hPa | 0 mm | - | - | - |
| 1778069865 | 13.33° C | 55% | 1009.5 hPa | 0 mm | - | - | - |
| 1778069264 | 13.89° C | 54% | 1009.4 hPa | 0 mm | - | - | - |
| 1778068664 | 14.44° C | 56% | 1009.6 hPa | 0 mm | - | - | - |
| 1778068063 | 13.89° C | 58% | 1009.6 hPa | 0 mm | - | - | - |
| 1778067463 | 15° C | 58% | 1009.6 hPa | 0 mm | - | - | - |
| 1778066862 | 12.78° C | 66% | 1009.6 hPa | 0 mm | - | - | - |
| 1778066262 | 11.67° C | 69% | 1009.7 hPa | 0 mm | - | - | - |
| 1778065661 | 11.67° C | 74% | 1009.7 hPa | 0 mm | - | - | - |
| 1778065060 | 12.22° C | 74% | 1009.8 hPa | 0 mm | - | - | - |
| 1778064460 | 12.22° C | 70% | 1009.8 hPa | 0 mm | - | - | - |
| 1778063859 | 11.67° C | 67% | 1009.7 hPa | 0 mm | - | - | - |
| 1778063258 | 11.67° C | 67% | 1009.7 hPa | 0 mm | - | - | - |
| 1778062658 | 11.67° C | 64% | 1009.7 hPa | 0 mm | - | - | - |
| 1778062057 | 12.78° C | 60% | 1009.5 hPa | 0 mm | - | - | - |
| 1778061456 | 13.33° C | 61% | 1009.6 hPa | 0 mm | - | - | - |
| 1778060856 | 13.33° C | 61% | 1009.5 hPa | 0 mm | - | - | - |
| 1778060255 | 11.67° C | 66% | 1009.6 hPa | 0 mm | - | - | - |
| 1778059653 | 10.56° C | 68% | 1009.7 hPa | 0 mm | - | - | - |
| 1778059052 | 11.67° C | 63% | 1009.4 hPa | 0 mm | - | - | - |
| 1778058452 | 12.78° C | 63% | 1009.4 hPa | 0 mm | - | - | - |
| 1778057851 | 12.78° C | 62% | 1009.4 hPa | 0 mm | - | - | - |
| 1778057250 | 11.67° C | 66% | 1009.4 hPa | 0 mm | - | - | - |
| 1778056649 | 11.11° C | 68% | 1009.3 hPa | 0 mm | - | - | - |
* Rain latest hour (hover to see other rain measurements)
** Current wind speed in m/s (hover to see current wind gust speed)